El Campo, Texas
Current Conditions -  °F | °C
As of 11:55 PM on Saturday 25 Oct 2014 (Local Time) from KARM Reporting Station
Clear Clear  
Wind Chill: 63°   Ceiling: Unl
Heat Index: 63°   Visibility: 10mi
Dew Point: 59°   Wind: 0mph
Humidity: 87%   Direction: NA
Pressure: 30.11"   Gusts: NA
Location:  29.22°N, 96.29°W
Report Text: KARM 260455Z AUTO 00000KT 10SM CLR 17/15 A3011 RMK AO2 T01740152
Loading
Personal Weather Stations






























Interactive Weather Map New forecast layout! Learn more

10-Day Weather Forecast

Advertisements
Track Severe Weather on mobile